sensor_id;sensor_type;location;lat;lon;timestamp;P1;durP1;ratioP1;P2;durP2;ratioP2
81170;SDS011;70644;44.818;20.478;2023-07-31T00:00:00;5.18;;;4.10;;
81170;SDS011;70644;44.818;20.478;2023-07-31T00:02:26;5.00;;;4.45;;
81170;SDS011;70644;44.818;20.478;2023-07-31T00:04:52;5.15;;;4.57;;
81170;SDS011;70644;44.818;20.478;2023-07-31T00:07:18;5.90;;;4.47;;
81170;SDS011;70644;44.818;20.478;2023-07-31T00:09:44;4.65;;;4.15;;
81170;SDS011;70644;44.818;20.478;2023-07-31T00:12:10;4.65;;;4.18;;
81170;SDS011;70644;44.818;20.478;2023-07-31T00:14:36;5.18;;;4.40;;
81170;SDS011;70644;44.818;20.478;2023-07-31T00:17:02;5.18;;;4.65;;
81170;SDS011;70644;44.818;20.478;2023-07-31T00:19:28;5.15;;;4.60;;
81170;SDS011;70644;44.818;20.478;2023-07-31T00:21:54;5.03;;;4.50;;
81170;SDS011;70644;44.818;20.478;2023-07-31T00:24:20;6.22;;;4.35;;
81170;SDS011;70644;44.818;20.478;2023-07-31T00:26:47;6.03;;;5.45;;
81170;SDS011;70644;44.818;20.478;2023-07-31T00:29:13;5.68;;;4.40;;
81170;SDS011;70644;44.818;20.478;2023-07-31T00:31:39;5.00;;;4.50;;
81170;SDS011;70644;44.818;20.478;2023-07-31T00:34:05;4.20;;;3.80;;
81170;SDS011;70644;44.818;20.478;2023-07-31T00:36:31;5.47;;;4.20;;
81170;SDS011;70644;44.818;20.478;2023-07-31T00:38:57;4.70;;;4.22;;
81170;SDS011;70644;44.818;20.478;2023-07-31T00:41:23;4.30;;;3.90;;
81170;SDS011;70644;44.818;20.478;2023-07-31T00:43:49;4.90;;;4.40;;
81170;SDS011;70644;44.818;20.478;2023-07-31T00:46:15;5.15;;;3.95;;
81170;SDS011;70644;44.818;20.478;2023-07-31T00:48:41;4.70;;;4.10;;
81170;SDS011;70644;44.818;20.478;2023-07-31T00:51:08;5.00;;;4.50;;
81170;SDS011;70644;44.818;20.478;2023-07-31T00:53:35;5.18;;;4.10;;
81170;SDS011;70644;44.818;20.478;2023-07-31T00:56:01;4.55;;;4.00;;
81170;SDS011;70644;44.818;20.478;2023-07-31T00:58:27;4.95;;;4.43;;
81170;SDS011;70644;44.818;20.478;2023-07-31T01:00:53;5.50;;;4.10;;
81170;SDS011;70644;44.818;20.478;2023-07-31T01:03:19;5.35;;;4.85;;
81170;SDS011;70644;44.818;20.478;2023-07-31T01:10:54;4.35;;;3.78;;
81170;SDS011;70644;44.818;20.478;2023-07-31T01:13:21;4.32;;;3.88;;
81170;SDS011;70644;44.818;20.478;2023-07-31T01:15:48;4.90;;;3.90;;
81170;SDS011;70644;44.818;20.478;2023-07-31T01:18:14;4.32;;;3.70;;
81170;SDS011;70644;44.818;20.478;2023-07-31T01:20:41;4.18;;;3.47;;
81170;SDS011;70644;44.818;20.478;2023-07-31T01:23:15;4.30;;;3.40;;
81170;SDS011;70644;44.818;20.478;2023-07-31T01:28:20;5.57;;;3.60;;
81170;SDS011;70644;44.818;20.478;2023-07-31T01:30:49;4.32;;;3.65;;
81170;SDS011;70644;44.818;20.478;2023-07-31T01:33:16;4.50;;;4.10;;
81170;SDS011;70644;44.818;20.478;2023-07-31T01:35:43;3.95;;;3.30;;
81170;SDS011;70644;44.818;20.478;2023-07-31T01:38:10;4.22;;;3.38;;
81170;SDS011;70644;44.818;20.478;2023-07-31T01:40:36;4.38;;;3.70;;
81170;SDS011;70644;44.818;20.478;2023-07-31T01:43:03;3.90;;;3.30;;
81170;SDS011;70644;44.818;20.478;2023-07-31T01:45:29;3.95;;;3.20;;
81170;SDS011;70644;44.818;20.478;2023-07-31T01:47:55;4.38;;;3.20;;
81170;SDS011;70644;44.818;20.478;2023-07-31T01:50:21;3.88;;;3.35;;
81170;SDS011;70644;44.818;20.478;2023-07-31T01:52:47;4.60;;;3.30;;
81170;SDS011;70644;44.818;20.478;2023-07-31T01:55:13;3.92;;;3.25;;
81170;SDS011;70644;44.818;20.478;2023-07-31T01:57:39;4.82;;;3.28;;
81170;SDS011;70644;44.818;20.478;2023-07-31T02:00:05;4.18;;;3.30;;
81170;SDS011;70644;44.818;20.478;2023-07-31T02:02:32;5.60;;;3.13;;
81170;SDS011;70644;44.818;20.478;2023-07-31T02:04:58;3.45;;;3.00;;
81170;SDS011;70644;44.818;20.478;2023-07-31T02:07:24;4.00;;;3.25;;
81170;SDS011;70644;44.818;20.478;2023-07-31T02:09:50;3.72;;;3.10;;
81170;SDS011;70644;44.818;20.478;2023-07-31T02:12:16;3.67;;;2.97;;
81170;SDS011;70644;44.818;20.478;2023-07-31T02:14:42;3.42;;;3.13;;
81170;SDS011;70644;44.818;20.478;2023-07-31T02:17:08;3.72;;;3.05;;
81170;SDS011;70644;44.818;20.478;2023-07-31T02:19:34;3.78;;;3.20;;
81170;SDS011;70644;44.818;20.478;2023-07-31T02:22:00;3.65;;;2.90;;
81170;SDS011;70644;44.818;20.478;2023-07-31T02:24:26;3.55;;;2.75;;
81170;SDS011;70644;44.818;20.478;2023-07-31T02:26:52;3.78;;;3.13;;
81170;SDS011;70644;44.818;20.478;2023-07-31T02:29:18;3.53;;;2.70;;
81170;SDS011;70644;44.818;20.478;2023-07-31T02:31:44;4.03;;;3.05;;
81170;SDS011;70644;44.818;20.478;2023-07-31T02:34:10;3.35;;;2.58;;
81170;SDS011;70644;44.818;20.478;2023-07-31T02:36:37;3.65;;;2.95;;
81170;SDS011;70644;44.818;20.478;2023-07-31T02:39:03;3.35;;;2.90;;
81170;SDS011;70644;44.818;20.478;2023-07-31T02:41:29;4.00;;;2.92;;
81170;SDS011;70644;44.818;20.478;2023-07-31T02:43:55;3.53;;;2.80;;
81170;SDS011;70644;44.818;20.478;2023-07-31T02:46:21;3.65;;;2.83;;
81170;SDS011;70644;44.818;20.478;2023-07-31T02:48:49;3.35;;;2.80;;
81170;SDS011;70644;44.818;20.478;2023-07-31T02:51:16;3.72;;;2.50;;
81170;SDS011;70644;44.818;20.478;2023-07-31T02:53:42;4.10;;;3.70;;
81170;SDS011;70644;44.818;20.478;2023-07-31T02:56:08;3.88;;;2.85;;
81170;SDS011;70644;44.818;20.478;2023-07-31T02:58:34;3.42;;;2.75;;
81170;SDS011;70644;44.818;20.478;2023-07-31T03:01:00;3.50;;;2.80;;
81170;SDS011;70644;44.818;20.478;2023-07-31T03:03:26;4.43;;;2.90;;
81170;SDS011;70644;44.818;20.478;2023-07-31T03:05:52;4.13;;;2.85;;
81170;SDS011;70644;44.818;20.478;2023-07-31T03:08:18;3.30;;;2.60;;
81170;SDS011;70644;44.818;20.478;2023-07-31T03:10:44;3.63;;;2.92;;
81170;SDS011;70644;44.818;20.478;2023-07-31T03:13:10;3.40;;;2.67;;
81170;SDS011;70644;44.818;20.478;2023-07-31T03:15:36;3.50;;;2.80;;
81170;SDS011;70644;44.818;20.478;2023-07-31T03:18:02;3.38;;;2.60;;
81170;SDS011;70644;44.818;20.478;2023-07-31T03:20:28;4.32;;;2.90;;
81170;SDS011;70644;44.818;20.478;2023-07-31T03:22:55;3.20;;;2.58;;
81170;SDS011;70644;44.818;20.478;2023-07-31T03:25:21;3.70;;;2.90;;
81170;SDS011;70644;44.818;20.478;2023-07-31T03:27:47;3.65;;;2.70;;
81170;SDS011;70644;44.818;20.478;2023-07-31T03:30:13;3.30;;;2.80;;
81170;SDS011;70644;44.818;20.478;2023-07-31T03:32:39;3.28;;;2.70;;
81170;SDS011;70644;44.818;20.478;2023-07-31T03:35:06;3.10;;;2.50;;
81170;SDS011;70644;44.818;20.478;2023-07-31T03:37:32;3.08;;;2.60;;
81170;SDS011;70644;44.818;20.478;2023-07-31T03:39:58;3.83;;;2.95;;
81170;SDS011;70644;44.818;20.478;2023-07-31T03:42:24;3.00;;;2.30;;
81170;SDS011;70644;44.818;20.478;2023-07-31T03:44:50;3.67;;;2.60;;
81170;SDS011;70644;44.818;20.478;2023-07-31T03:47:16;3.45;;;2.40;;
81170;SDS011;70644;44.818;20.478;2023-07-31T03:49:42;3.42;;;2.72;;
81170;SDS011;70644;44.818;20.478;2023-07-31T03:52:08;2.95;;;2.38;;
81170;SDS011;70644;44.818;20.478;2023-07-31T03:54:34;3.97;;;2.70;;
81170;SDS011;70644;44.818;20.478;2023-07-31T03:57:00;3.58;;;2.75;;
81170;SDS011;70644;44.818;20.478;2023-07-31T03:59:26;4.03;;;2.70;;
81170;SDS011;70644;44.818;20.478;2023-07-31T04:01:52;3.78;;;2.90;;
81170;SDS011;70644;44.818;20.478;2023-07-31T04:04:18;3.15;;;2.58;;
81170;SDS011;70644;44.818;20.478;2023-07-31T04:06:44;3.70;;;2.53;;
81170;SDS011;70644;44.818;20.478;2023-07-31T04:09:10;3.45;;;2.50;;
81170;SDS011;70644;44.818;20.478;2023-07-31T04:11:37;3.35;;;2.72;;
81170;SDS011;70644;44.818;20.478;2023-07-31T04:14:04;3.45;;;2.55;;
81170;SDS011;70644;44.818;20.478;2023-07-31T04:16:30;3.70;;;2.72;;
81170;SDS011;70644;44.818;20.478;2023-07-31T04:18:56;3.17;;;2.53;;
81170;SDS011;70644;44.818;20.478;2023-07-31T04:21:22;3.97;;;2.70;;
81170;SDS011;70644;44.818;20.478;2023-07-31T04:23:48;3.33;;;2.55;;
81170;SDS011;70644;44.818;20.478;2023-07-31T04:26:14;3.15;;;2.55;;
81170;SDS011;70644;44.818;20.478;2023-07-31T04:28:40;3.40;;;2.58;;
81170;SDS011;70644;44.818;20.478;2023-07-31T04:31:06;3.25;;;2.40;;
81170;SDS011;70644;44.818;20.478;2023-07-31T04:33:32;2.88;;;2.20;;
81170;SDS011;70644;44.818;20.478;2023-07-31T04:35:59;2.63;;;2.30;;
81170;SDS011;70644;44.818;20.478;2023-07-31T04:38:26;2.95;;;2.40;;
81170;SDS011;70644;44.818;20.478;2023-07-31T04:40:52;3.55;;;2.30;;
81170;SDS011;70644;44.818;20.478;2023-07-31T04:43:18;3.03;;;2.25;;
81170;SDS011;70644;44.818;20.478;2023-07-31T04:45:47;3.35;;;2.60;;
81170;SDS011;70644;44.818;20.478;2023-07-31T04:48:13;3.30;;;2.65;;
81170;SDS011;70644;44.818;20.478;2023-07-31T04:50:40;3.33;;;2.50;;
81170;SDS011;70644;44.818;20.478;2023-07-31T04:53:06;3.60;;;2.67;;
81170;SDS011;70644;44.818;20.478;2023-07-31T04:55:32;2.80;;;2.13;;
81170;SDS011;70644;44.818;20.478;2023-07-31T04:57:58;3.55;;;2.70;;
81170;SDS011;70644;44.818;20.478;2023-07-31T05:00:25;3.53;;;2.40;;
81170;SDS011;70644;44.818;20.478;2023-07-31T05:02:51;3.22;;;2.50;;
81170;SDS011;70644;44.818;20.478;2023-07-31T05:05:17;3.83;;;2.50;;
81170;SDS011;70644;44.818;20.478;2023-07-31T05:07:43;3.90;;;3.47;;
81170;SDS011;70644;44.818;20.478;2023-07-31T05:10:09;3.22;;;2.45;;
81170;SDS011;70644;44.818;20.478;2023-07-31T05:12:35;3.85;;;2.65;;
81170;SDS011;70644;44.818;20.478;2023-07-31T05:15:01;3.20;;;2.70;;
81170;SDS011;70644;44.818;20.478;2023-07-31T05:17:27;3.65;;;2.40;;
81170;SDS011;70644;44.818;20.478;2023-07-31T05:19:53;3.03;;;2.40;;
81170;SDS011;70644;44.818;20.478;2023-07-31T05:22:19;3.13;;;2.50;;
81170;SDS011;70644;44.818;20.478;2023-07-31T05:24:45;2.92;;;2.50;;
81170;SDS011;70644;44.818;20.478;2023-07-31T05:27:11;4.53;;;2.72;;
81170;SDS011;70644;44.818;20.478;2023-07-31T05:29:40;3.63;;;2.60;;
81170;SDS011;70644;44.818;20.478;2023-07-31T05:32:06;3.42;;;2.60;;
81170;SDS011;70644;44.818;20.478;2023-07-31T05:34:32;4.10;;;2.70;;
81170;SDS011;70644;44.818;20.478;2023-07-31T05:36:58;3.30;;;2.40;;
81170;SDS011;70644;44.818;20.478;2023-07-31T05:39:24;3.50;;;2.53;;
81170;SDS011;70644;44.818;20.478;2023-07-31T05:41:50;3.58;;;2.60;;
81170;SDS011;70644;44.818;20.478;2023-07-31T05:44:16;3.78;;;2.90;;
81170;SDS011;70644;44.818;20.478;2023-07-31T05:46:42;3.88;;;2.60;;
81170;SDS011;70644;44.818;20.478;2023-07-31T05:49:09;3.28;;;2.40;;
81170;SDS011;70644;44.818;20.478;2023-07-31T05:51:35;3.20;;;2.40;;
81170;SDS011;70644;44.818;20.478;2023-07-31T05:54:01;3.88;;;2.72;;
81170;SDS011;70644;44.818;20.478;2023-07-31T05:56:27;3.75;;;2.58;;
81170;SDS011;70644;44.818;20.478;2023-07-31T05:58:53;2.95;;;2.45;;
81170;SDS011;70644;44.818;20.478;2023-07-31T06:01:19;3.30;;;2.58;;
81170;SDS011;70644;44.818;20.478;2023-07-31T06:03:46;3.95;;;2.80;;
81170;SDS011;70644;44.818;20.478;2023-07-31T06:06:12;4.20;;;2.70;;
81170;SDS011;70644;44.818;20.478;2023-07-31T06:08:39;4.05;;;2.97;;
81170;SDS011;70644;44.818;20.478;2023-07-31T06:11:05;3.30;;;2.40;;
81170;SDS011;70644;44.818;20.478;2023-07-31T06:13:32;3.20;;;2.40;;
81170;SDS011;70644;44.818;20.478;2023-07-31T06:15:58;3.03;;;2.58;;
81170;SDS011;70644;44.818;20.478;2023-07-31T06:18:24;3.65;;;2.80;;
81170;SDS011;70644;44.818;20.478;2023-07-31T06:20:50;4.13;;;2.85;;
81170;SDS011;70644;44.818;20.478;2023-07-31T06:23:19;3.65;;;2.58;;
81170;SDS011;70644;44.818;20.478;2023-07-31T06:25:45;3.60;;;2.65;;
81170;SDS011;70644;44.818;20.478;2023-07-31T06:28:11;4.40;;;2.88;;
81170;SDS011;70644;44.818;20.478;2023-07-31T06:30:37;3.67;;;2.92;;
81170;SDS011;70644;44.818;20.478;2023-07-31T06:33:04;3.60;;;2.88;;
81170;SDS011;70644;44.818;20.478;2023-07-31T06:35:30;3.65;;;2.80;;
81170;SDS011;70644;44.818;20.478;2023-07-31T06:37:56;3.65;;;2.97;;
81170;SDS011;70644;44.818;20.478;2023-07-31T06:40:22;5.30;;;2.65;;
81170;SDS011;70644;44.818;20.478;2023-07-31T06:42:48;3.75;;;2.83;;
81170;SDS011;70644;44.818;20.478;2023-07-31T06:45:14;4.30;;;3.00;;
81170;SDS011;70644;44.818;20.478;2023-07-31T06:47:40;3.53;;;2.75;;
81170;SDS011;70644;44.818;20.478;2023-07-31T06:50:06;3.40;;;2.65;;
81170;SDS011;70644;44.818;20.478;2023-07-31T06:52:32;4.10;;;3.40;;
81170;SDS011;70644;44.818;20.478;2023-07-31T06:55:02;5.07;;;2.97;;
81170;SDS011;70644;44.818;20.478;2023-07-31T06:57:28;3.47;;;2.70;;
81170;SDS011;70644;44.818;20.478;2023-07-31T06:59:55;4.65;;;3.15;;
81170;SDS011;70644;44.818;20.478;2023-07-31T07:02:21;3.58;;;2.67;;
81170;SDS011;70644;44.818;20.478;2023-07-31T07:04:47;4.15;;;2.80;;
81170;SDS011;70644;44.818;20.478;2023-07-31T07:07:13;4.03;;;3.00;;
81170;SDS011;70644;44.818;20.478;2023-07-31T07:09:39;4.95;;;2.85;;
81170;SDS011;70644;44.818;20.478;2023-07-31T07:12:05;3.08;;;2.55;;
81170;SDS011;70644;44.818;20.478;2023-07-31T07:14:31;4.90;;;2.85;;
81170;SDS011;70644;44.818;20.478;2023-07-31T07:16:57;3.50;;;2.80;;
81170;SDS011;70644;44.818;20.478;2023-07-31T07:19:23;4.00;;;2.75;;
81170;SDS011;70644;44.818;20.478;2023-07-31T07:21:49;4.25;;;3.08;;
81170;SDS011;70644;44.818;20.478;2023-07-31T07:24:15;3.60;;;2.90;;
81170;SDS011;70644;44.818;20.478;2023-07-31T07:26:41;4.03;;;3.03;;
81170;SDS011;70644;44.818;20.478;2023-07-31T07:29:07;6.72;;;2.95;;
81170;SDS011;70644;44.818;20.478;2023-07-31T07:31:35;4.32;;;3.35;;
81170;SDS011;70644;44.818;20.478;2023-07-31T07:34:01;4.40;;;4.00;;
81170;SDS011;70644;44.818;20.478;2023-07-31T07:36:28;5.15;;;3.75;;
81170;SDS011;70644;44.818;20.478;2023-07-31T07:38:54;4.60;;;3.47;;
81170;SDS011;70644;44.818;20.478;2023-07-31T07:41:20;5.80;;;3.45;;
81170;SDS011;70644;44.818;20.478;2023-07-31T07:43:46;6.35;;;4.07;;
81170;SDS011;70644;44.818;20.478;2023-07-31T07:46:12;4.65;;;4.07;;
81170;SDS011;70644;44.818;20.478;2023-07-31T07:48:38;6.10;;;3.60;;
81170;SDS011;70644;44.818;20.478;2023-07-31T07:51:04;5.63;;;3.63;;
81170;SDS011;70644;44.818;20.478;2023-07-31T07:53:30;7.72;;;3.90;;
81170;SDS011;70644;44.818;20.478;2023-07-31T07:55:56;4.82;;;3.30;;
81170;SDS011;70644;44.818;20.478;2023-07-31T07:58:22;4.68;;;3.42;;
81170;SDS011;70644;44.818;20.478;2023-07-31T08:00:50;5.28;;;3.70;;
81170;SDS011;70644;44.818;20.478;2023-07-31T08:03:16;5.05;;;3.78;;
81170;SDS011;70644;44.818;20.478;2023-07-31T08:05:43;5.15;;;4.32;;
81170;SDS011;70644;44.818;20.478;2023-07-31T08:08:13;9.15;;;4.20;;
81170;SDS011;70644;44.818;20.478;2023-07-31T08:10:40;8.25;;;4.15;;
81170;SDS011;70644;44.818;20.478;2023-07-31T08:13:06;5.93;;;3.85;;
81170;SDS011;70644;44.818;20.478;2023-07-31T08:15:32;7.55;;;3.72;;
81170;SDS011;70644;44.818;20.478;2023-07-31T08:17:58;6.25;;;4.20;;
81170;SDS011;70644;44.818;20.478;2023-07-31T08:20:24;9.50;;;4.20;;
81170;SDS011;70644;44.818;20.478;2023-07-31T08:22:52;5.70;;;3.80;;
81170;SDS011;70644;44.818;20.478;2023-07-31T08:25:18;5.07;;;4.00;;
81170;SDS011;70644;44.818;20.478;2023-07-31T08:27:44;5.47;;;4.25;;
81170;SDS011;70644;44.818;20.478;2023-07-31T08:30:11;6.70;;;4.03;;
81170;SDS011;70644;44.818;20.478;2023-07-31T08:32:37;6.75;;;4.13;;
81170;SDS011;70644;44.818;20.478;2023-07-31T08:35:03;7.07;;;4.47;;
81170;SDS011;70644;44.818;20.478;2023-07-31T08:37:29;6.65;;;4.40;;
81170;SDS011;70644;44.818;20.478;2023-07-31T08:39:55;6.22;;;4.43;;
81170;SDS011;70644;44.818;20.478;2023-07-31T08:42:23;6.22;;;4.28;;
81170;SDS011;70644;44.818;20.478;2023-07-31T08:44:50;5.25;;;4.15;;
81170;SDS011;70644;44.818;20.478;2023-07-31T08:47:16;5.07;;;3.83;;
81170;SDS011;70644;44.818;20.478;2023-07-31T08:49:42;4.82;;;3.80;;
81170;SDS011;70644;44.818;20.478;2023-07-31T08:52:09;6.10;;;4.43;;
81170;SDS011;70644;44.818;20.478;2023-07-31T08:54:36;7.68;;;4.18;;
81170;SDS011;70644;44.818;20.478;2023-07-31T08:57:02;6.53;;;5.35;;
81170;SDS011;70644;44.818;20.478;2023-07-31T08:59:30;6.35;;;4.40;;
81170;SDS011;70644;44.818;20.478;2023-07-31T09:01:58;4.57;;;4.03;;
81170;SDS011;70644;44.818;20.478;2023-07-31T09:04:29;6.82;;;4.30;;
81170;SDS011;70644;44.818;20.478;2023-07-31T09:06:57;6.05;;;3.90;;
81170;SDS011;70644;44.818;20.478;2023-07-31T09:09:25;5.00;;;4.28;;
81170;SDS011;70644;44.818;20.478;2023-07-31T09:11:51;7.07;;;4.25;;
81170;SDS011;70644;44.818;20.478;2023-07-31T09:14:18;6.07;;;4.05;;
81170;SDS011;70644;44.818;20.478;2023-07-31T09:16:55;5.82;;;3.83;;
81170;SDS011;70644;44.818;20.478;2023-07-31T09:21:53;4.60;;;3.53;;
81170;SDS011;70644;44.818;20.478;2023-07-31T09:24:26;4.28;;;3.58;;
81170;SDS011;70644;44.818;20.478;2023-07-31T09:26:53;5.05;;;4.25;;
81170;SDS011;70644;44.818;20.478;2023-07-31T09:29:24;5.80;;;4.40;;
81170;SDS011;70644;44.818;20.478;2023-07-31T09:31:51;4.63;;;3.70;;
81170;SDS011;70644;44.818;20.478;2023-07-31T09:34:18;6.55;;;4.00;;
81170;SDS011;70644;44.818;20.478;2023-07-31T09:36:45;4.13;;;3.50;;
81170;SDS011;70644;44.818;20.478;2023-07-31T09:39:12;6.18;;;3.80;;
81170;SDS011;70644;44.818;20.478;2023-07-31T09:41:39;5.18;;;3.70;;
81170;SDS011;70644;44.818;20.478;2023-07-31T09:44:06;5.03;;;3.65;;
81170;SDS011;70644;44.818;20.478;2023-07-31T09:46:33;4.53;;;3.33;;
81170;SDS011;70644;44.818;20.478;2023-07-31T09:49:10;5.28;;;3.75;;
81170;SDS011;70644;44.818;20.478;2023-07-31T09:51:40;5.68;;;3.47;;
81170;SDS011;70644;44.818;20.478;2023-07-31T09:54:13;5.15;;;4.65;;
81170;SDS011;70644;44.818;20.478;2023-07-31T09:56:41;6.53;;;4.70;;
81170;SDS011;70644;44.818;20.478;2023-07-31T10:01:34;6.60;;;5.32;;
81170;SDS011;70644;44.818;20.478;2023-07-31T10:04:01;5.00;;;3.97;;
81170;SDS011;70644;44.818;20.478;2023-07-31T10:06:27;7.10;;;3.92;;
81170;SDS011;70644;44.818;20.478;2023-07-31T10:08:54;5.28;;;4.50;;
81170;SDS011;70644;44.818;20.478;2023-07-31T10:11:21;6.25;;;4.15;;
81170;SDS011;70644;44.818;20.478;2023-07-31T10:13:48;5.18;;;4.13;;
81170;SDS011;70644;44.818;20.478;2023-07-31T10:16:14;5.20;;;3.80;;
81170;SDS011;70644;44.818;20.478;2023-07-31T10:18:41;7.35;;;5.97;;
81170;SDS011;70644;44.818;20.478;2023-07-31T10:21:08;6.22;;;5.03;;
81170;SDS011;70644;44.818;20.478;2023-07-31T10:23:35;6.68;;;5.18;;
81170;SDS011;70644;44.818;20.478;2023-07-31T10:26:01;8.80;;;6.40;;
81170;SDS011;70644;44.818;20.478;2023-07-31T10:28:28;8.23;;;5.68;;
81170;SDS011;70644;44.818;20.478;2023-07-31T10:30:55;6.80;;;4.95;;
81170;SDS011;70644;44.818;20.478;2023-07-31T10:33:21;8.43;;;5.78;;
81170;SDS011;70644;44.818;20.478;2023-07-31T10:35:47;9.52;;;5.93;;
81170;SDS011;70644;44.818;20.478;2023-07-31T10:38:13;7.88;;;6.38;;
81170;SDS011;70644;44.818;20.478;2023-07-31T10:40:40;8.85;;;5.88;;
81170;SDS011;70644;44.818;20.478;2023-07-31T10:43:06;8.55;;;5.38;;
81170;SDS011;70644;44.818;20.478;2023-07-31T10:45:39;6.57;;;4.90;;
81170;SDS011;70644;44.818;20.478;2023-07-31T10:48:14;6.85;;;5.57;;
81170;SDS011;70644;44.818;20.478;2023-07-31T10:50:47;5.30;;;4.40;;
81170;SDS011;70644;44.818;20.478;2023-07-31T10:53:30;7.70;;;4.60;;
81170;SDS011;70644;44.818;20.478;2023-07-31T10:56:00;5.75;;;4.43;;
81170;SDS011;70644;44.818;20.478;2023-07-31T10:58:26;6.30;;;4.25;;
81170;SDS011;70644;44.818;20.478;2023-07-31T11:00:56;6.88;;;6.03;;
81170;SDS011;70644;44.818;20.478;2023-07-31T11:03:26;6.28;;;4.15;;
81170;SDS011;70644;44.818;20.478;2023-07-31T11:05:59;4.65;;;3.65;;
81170;SDS011;70644;44.818;20.478;2023-07-31T11:13:29;6.32;;;4.03;;
81170;SDS011;70644;44.818;20.478;2023-07-31T11:15:55;7.47;;;5.07;;
81170;SDS011;70644;44.818;20.478;2023-07-31T11:18:21;7.70;;;6.25;;
81170;SDS011;70644;44.818;20.478;2023-07-31T11:20:47;6.45;;;4.25;;
81170;SDS011;70644;44.818;20.478;2023-07-31T11:23:15;4.35;;;3.42;;
81170;SDS011;70644;44.818;20.478;2023-07-31T11:25:41;7.13;;;4.30;;
81170;SDS011;70644;44.818;20.478;2023-07-31T11:28:14;4.82;;;3.40;;
81170;SDS011;70644;44.818;20.478;2023-07-31T11:30:40;4.93;;;3.00;;
81170;SDS011;70644;44.818;20.478;2023-07-31T11:33:07;5.70;;;3.30;;
81170;SDS011;70644;44.818;20.478;2023-07-31T11:35:35;5.30;;;3.08;;
81170;SDS011;70644;44.818;20.478;2023-07-31T11:38:01;5.05;;;3.40;;
81170;SDS011;70644;44.818;20.478;2023-07-31T11:40:27;4.80;;;3.38;;
81170;SDS011;70644;44.818;20.478;2023-07-31T11:42:58;4.57;;;3.25;;
81170;SDS011;70644;44.818;20.478;2023-07-31T11:45:25;7.03;;;3.50;;
81170;SDS011;70644;44.818;20.478;2023-07-31T11:47:53;5.70;;;3.00;;
81170;SDS011;70644;44.818;20.478;2023-07-31T11:50:19;8.45;;;3.00;;
81170;SDS011;70644;44.818;20.478;2023-07-31T11:52:46;4.38;;;3.10;;
81170;SDS011;70644;44.818;20.478;2023-07-31T11:55:13;4.30;;;2.97;;
81170;SDS011;70644;44.818;20.478;2023-07-31T11:57:40;4.22;;;3.08;;
81170;SDS011;70644;44.818;20.478;2023-07-31T12:00:07;5.80;;;4.03;;
81170;SDS011;70644;44.818;20.478;2023-07-31T12:02:36;4.05;;;3.28;;
81170;SDS011;70644;44.818;20.478;2023-07-31T12:05:02;5.43;;;3.88;;
81170;SDS011;70644;44.818;20.478;2023-07-31T12:07:42;5.25;;;3.85;;
81170;SDS011;70644;44.818;20.478;2023-07-31T12:10:08;6.93;;;5.65;;
81170;SDS011;70644;44.818;20.478;2023-07-31T12:12:34;7.10;;;5.00;;
81170;SDS011;70644;44.818;20.478;2023-07-31T12:15:00;6.65;;;4.07;;
81170;SDS011;70644;44.818;20.478;2023-07-31T12:17:26;5.43;;;3.47;;
81170;SDS011;70644;44.818;20.478;2023-07-31T12:19:53;6.28;;;4.45;;
81170;SDS011;70644;44.818;20.478;2023-07-31T12:22:20;7.03;;;4.50;;
81170;SDS011;70644;44.818;20.478;2023-07-31T12:24:46;6.00;;;4.28;;
81170;SDS011;70644;44.818;20.478;2023-07-31T12:27:13;6.30;;;3.97;;
81170;SDS011;70644;44.818;20.478;2023-07-31T12:29:40;6.60;;;4.20;;
81170;SDS011;70644;44.818;20.478;2023-07-31T12:32:20;4.82;;;3.33;;
81170;SDS011;70644;44.818;20.478;2023-07-31T12:34:46;6.82;;;3.95;;
81170;SDS011;70644;44.818;20.478;2023-07-31T12:37:12;6.35;;;3.50;;
81170;SDS011;70644;44.818;20.478;2023-07-31T12:39:38;6.07;;;3.88;;
81170;SDS011;70644;44.818;20.478;2023-07-31T12:42:04;5.03;;;3.88;;
81170;SDS011;70644;44.818;20.478;2023-07-31T12:44:30;6.70;;;4.13;;
81170;SDS011;70644;44.818;20.478;2023-07-31T12:46:56;6.13;;;3.45;;
81170;SDS011;70644;44.818;20.478;2023-07-31T12:49:22;6.35;;;4.05;;
81170;SDS011;70644;44.818;20.478;2023-07-31T12:51:49;6.22;;;3.83;;
81170;SDS011;70644;44.818;20.478;2023-07-31T12:54:19;5.80;;;3.42;;
81170;SDS011;70644;44.818;20.478;2023-07-31T12:56:45;6.72;;;3.40;;
81170;SDS011;70644;44.818;20.478;2023-07-31T12:59:11;3.75;;;2.60;;
81170;SDS011;70644;44.818;20.478;2023-07-31T13:01:37;5.15;;;2.90;;
81170;SDS011;70644;44.818;20.478;2023-07-31T13:04:03;4.20;;;2.80;;
81170;SDS011;70644;44.818;20.478;2023-07-31T13:06:29;4.20;;;2.97;;
81170;SDS011;70644;44.818;20.478;2023-07-31T13:08:55;6.90;;;2.97;;
81170;SDS011;70644;44.818;20.478;2023-07-31T13:11:21;4.72;;;2.92;;
81170;SDS011;70644;44.818;20.478;2023-07-31T13:13:47;5.57;;;3.08;;
81170;SDS011;70644;44.818;20.478;2023-07-31T13:16:14;5.47;;;3.42;;
81170;SDS011;70644;44.818;20.478;2023-07-31T13:18:40;4.20;;;2.90;;
81170;SDS011;70644;44.818;20.478;2023-07-31T13:21:06;4.57;;;2.75;;
81170;SDS011;70644;44.818;20.478;2023-07-31T13:23:32;5.35;;;3.03;;
81170;SDS011;70644;44.818;20.478;2023-07-31T13:25:58;4.60;;;3.03;;
81170;SDS011;70644;44.818;20.478;2023-07-31T13:28:24;4.90;;;3.28;;
81170;SDS011;70644;44.818;20.478;2023-07-31T13:30:50;4.88;;;2.63;;
81170;SDS011;70644;44.818;20.478;2023-07-31T13:33:16;7.72;;;3.90;;
81170;SDS011;70644;44.818;20.478;2023-07-31T13:35:42;5.57;;;3.47;;
81170;SDS011;70644;44.818;20.478;2023-07-31T13:38:08;7.88;;;3.50;;
81170;SDS011;70644;44.818;20.478;2023-07-31T13:40:34;5.53;;;3.78;;
81170;SDS011;70644;44.818;20.478;2023-07-31T13:43:01;8.35;;;3.38;;
81170;SDS011;70644;44.818;20.478;2023-07-31T13:45:27;4.57;;;2.85;;
81170;SDS011;70644;44.818;20.478;2023-07-31T13:47:53;5.35;;;3.58;;
81170;SDS011;70644;44.818;20.478;2023-07-31T13:50:19;8.32;;;4.68;;
81170;SDS011;70644;44.818;20.478;2023-07-31T13:52:46;6.65;;;4.22;;
81170;SDS011;70644;44.818;20.478;2023-07-31T13:55:12;5.82;;;3.40;;
81170;SDS011;70644;44.818;20.478;2023-07-31T13:57:38;5.18;;;3.47;;
81170;SDS011;70644;44.818;20.478;2023-07-31T14:00:05;7.85;;;3.40;;
81170;SDS011;70644;44.818;20.478;2023-07-31T14:02:31;6.72;;;3.10;;
81170;SDS011;70644;44.818;20.478;2023-07-31T14:04:57;4.00;;;2.88;;
81170;SDS011;70644;44.818;20.478;2023-07-31T14:07:23;5.35;;;3.55;;
81170;SDS011;70644;44.818;20.478;2023-07-31T14:09:49;4.80;;;3.40;;
81170;SDS011;70644;44.818;20.478;2023-07-31T14:12:16;5.63;;;3.95;;
81170;SDS011;70644;44.818;20.478;2023-07-31T14:14:42;4.57;;;3.17;;
81170;SDS011;70644;44.818;20.478;2023-07-31T14:17:08;7.10;;;4.25;;
81170;SDS011;70644;44.818;20.478;2023-07-31T14:19:34;5.88;;;3.30;;
81170;SDS011;70644;44.818;20.478;2023-07-31T14:22:01;6.10;;;3.40;;
81170;SDS011;70644;44.818;20.478;2023-07-31T14:24:27;7.40;;;3.88;;
81170;SDS011;70644;44.818;20.478;2023-07-31T14:26:53;6.82;;;3.85;;
81170;SDS011;70644;44.818;20.478;2023-07-31T14:29:19;5.53;;;3.33;;
81170;SDS011;70644;44.818;20.478;2023-07-31T14:31:45;4.53;;;2.78;;
81170;SDS011;70644;44.818;20.478;2023-07-31T14:34:11;6.70;;;3.05;;
81170;SDS011;70644;44.818;20.478;2023-07-31T14:36:39;6.43;;;3.40;;
81170;SDS011;70644;44.818;20.478;2023-07-31T14:39:05;5.57;;;3.30;;
81170;SDS011;70644;44.818;20.478;2023-07-31T14:41:31;5.65;;;3.30;;
81170;SDS011;70644;44.818;20.478;2023-07-31T14:43:57;4.60;;;3.40;;
81170;SDS011;70644;44.818;20.478;2023-07-31T14:46:23;4.93;;;3.42;;